Los Posos, Valles Caldera, New Mexico Weather observations

Data are for 10 minute period ending at time listed.
 Day   Time   Solar   Ave.   Ave.  Ave.  Vector  Max.   Baro.   Total    
  of    of     Rad.   Air    Rel.  Wind   Wind   Wind  Press.  Precip.   
Year   Day            Temp.  Hum.  Speed  Dir.   Gust                    
2016   (MST)  Kw/m2    F      %     mph   deg.    mph    mb.     in.     
-------------------------------------------------------------------------
 177   11:30   0.55   72.2    30    7.1   339    13.1   99999.0    0.00 
 177   11:40   0.36   70.6    30    3.7   324     6.0   99999.0    0.00 
 177   11:50   0.35   70.9    27    4.4   343    10.2   99999.0    0.00 
 177   12:00   0.64   71.8    27    8.1   348    14.3   99999.0    0.00 
 177   12:10   0.78   74.3    25    7.9   358    12.5   99999.0    0.00 
 177   12:20   0.56   72.6    27    7.6   342    12.5   99999.0    0.00 
 177   12:30   0.44   71.2    25    5.7   303    10.2   99999.0    0.00 
 177   12:40   0.43   71.5    26    5.3    33    11.3   99999.0    0.00 
 177   12:50   0.35   70.6    25    2.9   134     6.6   99999.0    0.00 
 177   13:00   0.22   69.0    28    4.0   151     8.4   99999.0    0.00 
 177   13:10   0.17   68.5    30    0.7   125     3.0   99999.0    0.00 
 177   13:20   0.20   69.2    30    0.2   107     2.4   99999.0    0.00 
 177   13:30   0.30   69.7    31    3.1    12     8.4   99999.0    0.00 
 177   13:40   0.64   70.5    31    3.6   301     7.8   99999.0    0.00 
 177   13:50   0.50   70.6    34    6.3    77    10.8   99999.0    0.00 
 177   14:00   0.58   71.0    33    5.2    44     9.0   99999.0    0.00 
 177   14:10   0.59   72.6    30    6.2    10    12.5   99999.0    0.00 
 177   14:20   0.54   72.6    30    6.9   352    17.3   99999.0    0.00 
 177   14:30   0.37   71.2    32    6.7    48    11.3   99999.0    0.00 
 177   14:40   0.35   70.6    32    8.3     3    13.7   99999.0    0.00 
 177   14:50   0.39   70.2    32    9.6   349    14.3   99999.0    0.00 
 177   15:00   0.43   70.4    32    8.1   356    12.5   99999.0    0.00 
 177   15:10   0.55   71.7    31    7.4   343    11.9   99999.0    0.00 
 177   15:20   0.47   72.3    31    8.6   341    14.3   99999.0    0.00 
 177   15:30   0.43   71.7    30    7.2     2    11.9   99999.0    0.00 
 177   15:40   0.51   73.0    31    8.9   343    15.5   99999.0    0.00 
 177   15:50   0.29   70.4    31    8.9   322    14.9   99999.0    0.00 
 177   16:00   0.20   68.9    32    7.7   327    11.3   99999.0    0.00 
 177   16:10   0.14   68.1    32    4.7   317     8.4   99999.0    0.00 
 177   16:20   0.12   68.1    33    2.9   303     4.8   99999.0    0.00 
 177   16:30   0.11   68.0    32    1.7   231     3.0   99999.0    0.00 
 177   16:40   0.10   68.2    33    1.3   293     4.2   99999.0    0.00 
 177   16:50   0.11   67.9    33    1.5   294     4.2   99999.0    0.00 
 177   17:00   0.12   68.4    35    0.7    40     3.0   99999.0    0.00 
 177   17:10   0.09   68.3    36    1.8    22     3.6   99999.0    0.00 
 177   17:20   0.08   67.6    39    2.7    52     4.8   99999.0    0.00 
 177   17:30   0.08   66.8    42    2.9    51     3.6   99999.0    0.00 
 177   17:40   0.07   66.3    45    0.6    79     2.4   99999.0    0.00 
 177   17:50   0.07   65.9    48    0.1   286     1.8   99999.0    0.00 
 177   18:00   0.07   65.4    56    0.5   274     2.4   99999.0    0.00 
 177   18:10   0.06   64.8    58    0.8   236     2.4   99999.0    0.00 
 177   18:20   0.06   64.7    53    0.0     0     0.0   99999.0    0.00 
 177   18:30   0.05   64.8    48    0.4   106     2.4   99999.0    0.00 
 177   18:40   0.05   64.4    51    0.0     0     0.0   99999.0    0.00 
 177   18:50   0.03   63.8    60    0.0     0     0.0   99999.0    0.00 
 177   19:00   0.02   62.6    57    0.4   223     3.0   99999.0    0.00 
 177   19:10   0.02   62.5    55    1.7   171     3.0   99999.0    0.00 
 177   19:20   0.01   61.1    57    2.8   190     4.2   99999.0    0.00 
 177   19:30   0.00   61.0    53    7.2   132    15.5   99999.0    0.00 
 177   19:40   0.00   61.6    49    3.4   126     8.4   99999.0    0.00 
 177   19:50   0.00   60.7    52    2.8   274     4.8   99999.0    0.00 
 177   20:00   0.00   59.6    54    1.8   205     4.2   99999.0    0.00 
 177   20:10   0.00   59.3    55    1.0   166     3.6   99999.0    0.00 
 177   20:20   0.00   58.3    58    0.6   141     3.0   99999.0    0.00 
 177   20:30   0.00   57.1    61    0.6    31     3.0   99999.0    0.00 
 177   20:40   0.00   55.3    66    0.0     0     0.0   99999.0    0.00 
 177   20:50   0.00   54.6    69    1.0   227     3.0   99999.0    0.00 
 177   21:00   0.00   54.4    68    0.0     0     0.0   99999.0    0.00 
 177   21:10   0.00   54.8    67    0.0     0     0.0   99999.0    0.00 
 177   21:20   0.00   54.3    70    0.3   246     2.4   99999.0    0.00 
 177   21:30   0.00   53.6    72    0.0     0     0.0   99999.0    0.00 
 177   21:40   0.00   53.3    74    0.6   248     3.6   99999.0    0.00 
 177   21:50   0.00   53.5    71    0.0     0     0.0   99999.0    0.00 
 177   22:00   0.00   53.5    73    0.0   282     1.2   99999.0    0.00 
 177   22:10   0.00   53.1    74    0.0     0     0.0   99999.0    0.00 
 177   22:20   0.00   53.1    74    1.3   246     3.0   99999.0    0.00 
 177   22:30   0.00   53.0    75    2.6    72     4.8   99999.0    0.00 
 177   22:40   0.00   52.3    77    2.0   239     3.6   99999.0    0.00 
 177   22:50   0.00   53.2    74    0.8   243     3.0   99999.0    0.00 
 177   23:00   0.00   53.1    75    0.3   233     2.4   99999.0    0.00 
 177   23:10   0.00   53.0    75    2.1   115     3.6   99999.0    0.00 
 177   23:20   0.00   52.8    75    0.2    71     3.0   99999.0    0.00 
 177   23:30   0.00   52.9    76    0.0     0     0.0   99999.0    0.00 
 177   23:40   0.00   55.0    66    3.2   180     8.4   99999.0    0.00 
 177   23:50   0.00   58.1    58    5.7   180    11.3   99999.0    0.00 
 178    0:00   0.00   58.4    58    4.5   138     9.0   99999.0    0.00 
 178    0:10   0.00   58.9    57    6.8   142    11.9   99999.0    0.00 
 178    0:20   0.00   58.5    58    2.4   205     4.8   99999.0    0.00 
 178    0:30   0.00   58.1    58    5.4   235    14.3   99999.0    0.00 
 178    0:40   0.00   58.0    58    5.7   194     9.0   99999.0    0.00 
 178    0:50   0.00   56.8    61    1.3   158     6.6   99999.0    0.00 
 178    1:00   0.00   55.0    65    1.6   177     3.6   99999.0    0.00 
 178    1:10   0.00   55.0    65    1.6   124     4.8   99999.0    0.00 
 178    1:20   0.00   53.3    68    0.3   182     4.8   99999.0    0.00 
 178    1:30   0.00   51.0    74    0.0     0     0.0   99999.0    0.00 
 178    1:40   0.00   49.8    77    0.0     0     0.0   99999.0    0.00 
 178    1:50   0.00   48.9    78    0.0     0     0.0   99999.0    0.00 
 178    2:00   0.00   47.5    81    0.1   205     1.2   99999.0    0.00 
 178    2:10   0.00   46.4    82    2.2   238     3.6   99999.0    0.00 
 178    2:20   0.00   45.8    84    1.2   250     3.6   99999.0    0.00 
 178    2:30   0.00   46.8    83    0.1   105     1.8   99999.0    0.00 
 178    2:40   0.00   46.3    82    0.0   218     1.2   99999.0    0.00 
 178    2:50   0.00   45.0    85    0.2     5     2.4   99999.0    0.00 
 178    3:00   0.00   44.9    85    0.0     0     0.0   99999.0    0.00 
 178    3:10   0.00   43.6    87    0.4   236     1.8   99999.0    0.00 
 178    3:20   0.00   44.0    87    0.0   235     1.2   99999.0    0.00 
 178    3:30   0.00   43.1    88    0.1   234     1.2   99999.0    0.00 
 178    3:40   0.00   43.3    89    0.0     0     0.0   99999.0    0.00 
 178    3:50   0.00   43.6    90    0.0    54     1.2   99999.0    0.00 
 178    4:00   0.00   43.4    89    1.2   246     3.6   99999.0    0.00 
 178    4:10   0.00   44.1    90    1.6   318     3.6   99999.0    0.00 
 178    4:20   0.00   44.1    89    0.0     0     0.0   99999.0    0.00 
 178    4:30   0.00   44.2    88    0.2   240     1.2   99999.0    0.00 
 178    4:40   0.00   43.8    88    1.2   329     3.6   99999.0    0.00 
 178    4:50   0.00   43.7    89    1.6   240     3.0   99999.0    0.00 
 178    5:00   0.01   43.7    89    1.6   244     3.0   99999.0    0.00 
 178    5:10   0.01   43.2    89    0.0     0     0.0   99999.0    0.00 
 178    5:20   0.03   43.2    90    0.6   153     4.2   99999.0    0.00 
 178    5:30   0.06   44.0    90    0.2   241     1.8   99999.0    0.00 
 178    5:40   0.09   45.3    88    0.0     0     0.0   99999.0    0.00 
 178    5:50   0.13   47.7    85    0.0   250     1.8   99999.0    0.00 
 178    6:00   0.16   50.4    82    0.9    55     4.2   99999.0    0.00 
 178    6:10   0.13   52.5    78    0.9    44     3.6   99999.0    0.00 
 178    6:20   0.10   51.2    80    0.0   332     1.2   99999.0    0.00 
 178    6:30   0.20   52.5    79    0.4   139     3.6   99999.0    0.00 
 178    6:40   0.28   55.8    70    3.4   165     7.2   99999.0    0.00 
 178    6:50   0.32   57.4    66    4.6   163     7.8   99999.0    0.00 
 178    7:00   0.35   58.9    63    5.0   172     9.6   99999.0    0.00 
 178    7:10   0.33   59.8    61    5.1   177    10.2   99999.0    0.00 
 178    7:20   0.41   59.9    60    5.8   159     9.6   99999.0    0.00 
 178    7:30   0.44   60.4    59    6.1   175    10.2   99999.0    0.00 
 178    7:40   0.48   60.9    59    5.5   173     9.6   99999.0    0.00 
 178    7:50   0.51   61.0    59    6.5   170    10.8   99999.0    0.00 
 178    8:00   0.53   61.5    59    6.8   184    11.3   99999.0    0.00 
 178    8:10   0.54   61.8    59    6.5   178    11.9   99999.0    0.00 
 178    8:20   0.55   61.8    60    5.5   166    11.3   99999.0    0.00 
 178    8:30   0.56   62.6    59    4.7   175     8.4   99999.0    0.00 
 178    8:40   0.68   62.9    58    4.0   180     7.8   99999.0    0.00 
 178    8:50   0.68   64.1    56    5.3   176     9.6   99999.0    0.00 
 178    9:00   0.74   63.6    57    5.6   172     8.4   99999.0    0.00 
 178    9:10   0.79   64.6    57    6.8   156    11.3   99999.0    0.00 
 178    9:20   0.80   64.7    57    6.1   155    10.8   99999.0    0.00 
 178    9:30   0.76   65.5    56    5.3   168     9.6   99999.0    0.00 
 178    9:40   0.65   65.5    55    5.2   184     9.0   99999.0    0.00 
 178    9:50   0.72   65.8    53    6.0   174     9.6   99999.0    0.00 
 178   10:00   0.72   66.3    50    4.6   177     9.0   99999.0    0.00 
 178   10:10   0.77   67.1    47    3.5   176     7.8   99999.0    0.00 
 178   10:20   0.86   67.6    48    5.2   158     9.0   99999.0    0.00 
 178   10:30   0.95   68.8    49    4.8   167     9.6   99999.0    0.00 
 178   10:40   0.88   69.3    48    5.3   204    13.1   99999.0    0.00 
 178   10:50   0.58   68.6    49    3.8   164    10.2   99999.0    0.00 
 178   11:00   0.63   68.3    50    3.5   127     7.2   99999.0    0.00 
 178   11:10   0.35   68.1    50    3.1   166     7.8   99999.0    0.00 
 178   11:20   0.12   67.0    51    2.2   108     7.2   99999.0    0.00 

Return to Los Posos, Valles Caldera graphs page.


Western Regional Climate Center,wrcc@dri.edu